Time;durP1;ratioP1;P1;durP2;ratioP2;P2;SDS_P1;SDS_P2;PMS_P1;PMS_P2;Temp;Humidity;BMP_temperature;BMP_pressure;BME280_temperature;BME280_humidity;BME280_pressure;Samples;Min_cycle;Max_cycle;Signal;HPM_P1;HPM_P2
2022/10/10 00:00:36;;;;;;;4.97;1.95;;;11.70;83.50;;;;;;5052299;28;20112;-75
2022/10/10 00:03:03;;;;;;;4.00;2.00;;;11.70;83.30;;;;;;5052901;28;20029;-75
2022/10/10 00:05:29;;;;;;;4.35;2.60;;;11.60;84.30;;;;;;5052061;28;20031;-75
2022/10/10 00:07:54;;;;;;;3.95;2.30;;;11.60;84.60;;;;;;5052587;28;20048;-75
2022/10/10 00:10:20;;;;;;;3.83;1.85;;;11.50;84.90;;;;;;5052302;28;20033;-75
2022/10/10 00:12:46;;;;;;;4.93;2.28;;;11.50;85.30;;;;;;5052294;28;20029;-75
2022/10/10 00:15:12;;;;;;;2.78;2.00;;;11.50;85.70;;;;;;5052610;28;20064;-75
2022/10/10 00:17:39;;;;;;;4.88;2.20;;;11.40;85.60;;;;;;5052163;28;20033;-75
2022/10/10 00:20:05;;;;;;;5.95;2.00;;;11.40;86.20;;;;;;5052399;28;20142;-76
2022/10/10 00:22:31;;;;;;;4.70;1.98;;;11.30;86.40;;;;;;5052094;28;20108;-75
2022/10/10 00:24:57;;;;;;;4.95;1.98;;;11.30;87.00;;;;;;5052269;28;20197;-75
2022/10/10 00:27:23;;;;;;;4.55;2.50;;;11.30;87.10;;;;;;5052548;28;20035;-75
2022/10/10 00:29:48;;;;;;;6.50;2.30;;;11.30;87.40;;;;;;5052038;28;20056;-75
2022/10/10 00:32:14;;;;;;;4.18;2.13;;;11.30;87.60;;;;;;5052312;28;20106;-74
2022/10/10 00:34:40;;;;;;;4.97;2.60;;;11.30;88.30;;;;;;5051768;28;20120;-75
2022/10/10 00:37:05;;;;;;;2.65;1.67;;;11.30;88.20;;;;;;5052415;28;20067;-74
2022/10/10 00:39:31;;;;;;;6.97;3.08;;;11.20;88.70;;;;;;5052121;28;20025;-75
2022/10/10 00:41:56;;;;;;;7.28;1.73;;;11.20;89.70;;;;;;5052295;28;20029;-75
2022/10/10 00:44:22;;;;;;;4.78;2.17;;;11.30;89.70;;;;;;5052132;28;20028;-75
2022/10/10 00:46:48;;;;;;;4.03;1.70;;;11.20;89.90;;;;;;5051994;28;20033;-75
2022/10/10 00:49:24;;;;;;;4.95;1.60;;;11.30;90.10;;;;;;5052046;28;20029;-73
2022/10/10 00:51:53;;;;;;;3.72;1.65;;;11.20;90.20;;;;;;5052275;28;20039;-75
2022/10/10 00:54:22;;;;;;;6.57;1.98;;;11.20;90.50;;;;;;5052289;28;20025;-74
2022/10/10 00:56:51;;;;;;;2.88;1.65;;;11.20;90.70;;;;;;5051915;28;20033;-74
2022/10/10 00:59:18;;;;;;;4.22;1.80;;;11.20;90.70;;;;;;5052340;28;20029;-74
2022/10/10 01:01:45;;;;;;;3.58;2.47;;;11.20;90.80;;;;;;5051644;28;20029;-75
2022/10/10 01:04:34;;;;;;;5.82;2.15;;;11.20;91.30;;;;;;5054200;28;20028;-75
2022/10/10 01:07:03;;;;;;;3.88;1.50;;;11.20;91.10;;;;;;5056142;28;20021;-75
2022/10/10 01:09:30;;;;;;;2.67;1.63;;;11.20;91.00;;;;;;5055794;28;20023;-75
2022/10/10 01:12:17;;;;;;;5.75;2.28;;;11.20;91.20;;;;;;5055921;28;20029;-75
2022/10/10 01:14:42;;;;;;;3.03;1.58;;;11.10;91.40;;;;;;5055316;28;20032;-74
2022/10/10 01:17:11;;;;;;;5.38;1.98;;;11.10;91.70;;;;;;5056183;28;20029;-74
2022/10/10 01:20:04;;;;;;;3.80;1.98;;;11.10;91.70;;;;;;5055403;28;20025;-75
2022/10/10 01:23:07;;;;;;;4.85;2.28;;;11.00;91.70;;;;;;5055322;28;20029;-75
2022/10/10 01:25:48;;;;;;;6.95;2.28;;;11.00;92.30;;;;;;5055046;28;20450;-75
2022/10/10 01:28:36;;;;;;;5.20;2.42;;;10.90;92.30;;;;;;5055754;28;20017;-75
2022/10/10 01:31:07;;;;;;;2.70;1.98;;;10.90;92.50;;;;;;5048794;28;20056;-73
2022/10/10 01:33:53;;;;;;;3.15;2.40;;;10.90;92.90;;;;;;5054943;28;20025;-75
2022/10/10 01:36:34;;;;;;;3.38;2.20;;;10.90;92.70;;;;;;5055485;28;20025;-74
2022/10/10 01:39:39;;;;;;;5.93;2.50;;;10.80;92.80;;;;;;5055507;28;20021;-74
2022/10/10 01:42:19;;;;;;;3.15;2.10;;;10.80;92.90;;;;;;5013123;28;20045;-74
2022/10/10 01:44:46;;;;;;;6.68;2.97;;;10.80;93.10;;;;;;5050064;28;20036;-74
2022/10/10 01:47:12;;;;;;;6.45;2.42;;;10.70;93.30;;;;;;5055264;28;20025;-74
2022/10/10 01:49:41;;;;;;;5.13;2.50;;;10.70;93.60;;;;;;5054597;28;20029;-75
2022/10/10 01:52:28;;;;;;;4.22;1.95;;;10.60;93.60;;;;;;5055427;28;20037;-74
2022/10/10 01:55:24;;;;;;;4.05;2.30;;;10.60;94.20;;;;;;5054806;28;20025;-74
2022/10/10 01:58:22;;;;;;;3.35;1.92;;;10.50;94.30;;;;;;5054478;28;20028;-75
2022/10/10 02:00:52;;;;;;;3.42;2.28;;;10.50;94.60;;;;;;5054267;28;20432;-75
2022/10/10 02:03:31;;;;;;;3.35;1.77;;;10.40;95.20;;;;;;5055014;28;20025;-74
2022/10/10 02:06:06;;;;;;;6.30;2.90;;;10.40;95.10;;;;;;5054878;28;20025;-75
2022/10/10 02:08:40;;;;;;;6.43;2.53;;;10.40;95.30;;;;;;5054189;28;20036;-75
2022/10/10 02:11:08;;;;;;;6.45;2.53;;;10.40;95.70;;;;;;5053626;28;20061;-74
2022/10/10 02:13:45;;;;;;;4.03;2.10;;;10.30;96.00;;;;;;5054426;28;20029;-75
2022/10/10 02:16:32;;;;;;;3.92;2.28;;;10.30;95.80;;;;;;5054725;28;20067;-75
2022/10/10 02:19:01;;;;;;;3.88;2.05;;;10.30;96.00;;;;;;5054683;28;20477;-75
2022/10/10 02:21:28;;;;;;;4.28;2.75;;;10.20;96.30;;;;;;5054214;28;20461;-75
2022/10/10 02:23:58;;;;;;;6.18;2.63;;;10.20;96.50;;;;;;5054097;28;20031;-74
2022/10/10 02:26:27;;;;;;;4.22;2.58;;;10.10;96.70;;;;;;5054397;28;20051;-75
2022/10/10 02:29:09;;;;;;;4.55;2.50;;;10.10;97.00;;;;;;5053827;28;20021;-75
2022/10/10 02:31:52;;;;;;;5.35;2.40;;;10.00;97.50;;;;;;5053680;28;20072;-75
2022/10/10 02:34:22;;;;;;;3.97;2.30;;;10.10;97.60;;;;;;5054068;28;20060;-74
2022/10/10 02:36:55;;;;;;;5.72;2.67;;;10.00;97.90;;;;;;5053953;28;20033;-75
2022/10/10 02:39:26;;;;;;;7.40;2.40;;;10.00;97.80;;;;;;5054206;28;20036;-74
2022/10/10 02:41:52;;;;;;;8.60;2.50;;;10.00;98.30;;;;;;5053569;28;20115;-75
2022/10/10 02:44:18;;;;;;;7.55;2.53;;;10.00;98.10;;;;;;5054221;28;20109;-75
2022/10/10 02:46:44;;;;;;;4.10;2.40;;;10.10;97.90;;;;;;5053842;28;20021;-75
2022/10/10 02:49:10;;;;;;;5.93;2.40;;;10.10;97.90;;;;;;5054269;28;20036;-75
2022/10/10 02:51:37;;;;;;;5.07;2.40;;;10.10;98.50;;;;;;5054048;28;20436;-74
2022/10/10 02:54:04;;;;;;;4.95;2.38;;;10.10;98.40;;;;;;5054008;28;20108;-74
2022/10/10 02:56:29;;;;;;;5.63;2.15;;;10.10;98.20;;;;;;5054007;28;20037;-74
2022/10/10 02:58:56;;;;;;;4.00;2.30;;;10.20;98.00;;;;;;5053822;28;20368;-74
2022/10/10 03:01:22;;;;;;;2.88;2.38;;;10.20;98.10;;;;;;5053873;28;20041;-75
2022/10/10 03:03:47;;;;;;;3.72;1.70;;;10.30;97.80;;;;;;5053174;28;20027;-75
2022/10/10 03:06:13;;;;;;;3.25;1.50;;;10.40;97.30;;;;;;5053802;28;20369;-75
2022/10/10 03:08:39;;;;;;;3.75;1.60;;;10.40;97.10;;;;;;5052074;28;20434;-74
2022/10/10 03:11:05;;;;;;;3.67;1.92;;;10.40;97.00;;;;;;5053529;28;20035;-74
2022/10/10 03:13:31;;;;;;;4.35;1.90;;;10.50;96.90;;;;;;5053716;28;20409;-75
2022/10/10 03:15:57;;;;;;;4.75;1.88;;;10.50;96.80;;;;;;5052935;28;20197;-74
2022/10/10 03:18:23;;;;;;;3.13;1.63;;;10.50;96.40;;;;;;5053821;28;20029;-75
2022/10/10 03:20:54;;;;;;;3.90;1.85;;;10.60;96.10;;;;;;5053058;28;20037;-74
2022/10/10 03:23:21;;;;;;;2.70;1.63;;;10.60;95.70;;;;;;5053431;28;20063;-75
2022/10/10 03:25:47;;;;;;;4.82;1.83;;;10.60;95.40;;;;;;5052442;28;20025;-75
2022/10/10 03:28:13;;;;;;;2.38;1.80;;;10.70;95.40;;;;;;5053062;28;20497;-74
2022/10/10 03:30:39;;;;;;;6.32;1.88;;;10.70;95.20;;;;;;5052917;28;20115;-76
2022/10/10 03:33:05;;;;;;;4.07;2.10;;;10.70;95.10;;;;;;5053624;28;20078;-74
2022/10/10 03:35:31;;;;;;;3.95;1.70;;;10.70;95.00;;;;;;5053298;28;20033;-74
2022/10/10 03:37:57;;;;;;;6.50;1.77;;;10.70;94.90;;;;;;5052870;28;20370;-75
2022/10/10 03:40:23;;;;;;;3.05;1.58;;;10.80;94.70;;;;;;5052928;28;20109;-75
2022/10/10 03:42:49;;;;;;;5.47;1.90;;;10.80;94.50;;;;;;5052766;28;20028;-74
2022/10/10 03:45:14;;;;;;;2.20;1.42;;;10.70;94.40;;;;;;5053005;28;20032;-74
2022/10/10 03:47:40;;;;;;;2.67;1.55;;;10.70;94.50;;;;;;5052390;28;20043;-76
2022/10/10 03:50:06;;;;;;;3.25;1.90;;;10.70;94.30;;;;;;5052742;28;20047;-75
2022/10/10 03:52:32;;;;;;;3.35;2.03;;;10.70;94.30;;;;;;5052913;28;20082;-75
2022/10/10 03:54:57;;;;;;;2.15;1.58;;;10.70;94.50;;;;;;5052557;28;20025;-75
2022/10/10 03:57:23;;;;;;;2.72;1.45;;;10.70;94.20;;;;;;5052631;28;20056;-75
2022/10/10 03:59:49;;;;;;;4.43;1.88;;;10.80;93.90;;;;;;5052199;28;20108;-75
2022/10/10 04:02:14;;;;;;;2.30;1.60;;;10.80;93.70;;;;;;5051562;28;20039;-75
2022/10/10 04:04:40;;;;;;;4.95;1.50;;;10.80;93.50;;;;;;5052751;28;20036;-75
2022/10/10 04:07:05;;;;;;;3.63;2.03;;;10.80;93.50;;;;;;5052475;28;20025;-75
2022/10/10 04:09:31;;;;;;;4.47;1.60;;;10.80;93.30;;;;;;5052687;28;20021;-75
2022/10/10 04:11:58;;;;;;;4.35;1.80;;;10.80;93.50;;;;;;5052435;28;20055;-76
2022/10/10 04:14:24;;;;;;;5.93;1.60;;;10.80;93.30;;;;;;5052224;28;20033;-75
2022/10/10 04:16:50;;;;;;;3.58;2.00;;;10.80;93.50;;;;;;5052264;28;20025;-76
2022/10/10 04:19:15;;;;;;;4.07;1.60;;;10.80;93.40;;;;;;5052617;28;20378;-75
2022/10/10 04:21:41;;;;;;;4.18;1.70;;;10.80;93.40;;;;;;5052258;28;20444;-75
2022/10/10 04:24:06;;;;;;;2.58;1.75;;;10.80;93.20;;;;;;5052319;28;20095;-75
2022/10/10 04:26:32;;;;;;;3.45;1.85;;;10.80;93.00;;;;;;5052913;28;20028;-75
2022/10/10 04:28:58;;;;;;;2.20;1.42;;;10.90;93.00;;;;;;5051911;28;20067;-75
2022/10/10 04:31:23;;;;;;;3.13;1.77;;;10.90;92.90;;;;;;5052470;28;20045;-75
2022/10/10 04:33:49;;;;;;;2.15;1.60;;;10.90;92.70;;;;;;5052413;28;20074;-75
2022/10/10 04:36:15;;;;;;;2.95;1.60;;;10.90;92.70;;;;;;5052421;28;20021;-75
2022/10/10 04:38:41;;;;;;;3.60;1.55;;;10.90;92.60;;;;;;5054009;28;20044;-76
2022/10/10 04:41:06;;;;;;;4.25;2.15;;;11.00;92.40;;;;;;5055266;28;20116;-75
2022/10/10 04:43:33;;;;;;;3.67;1.33;;;11.00;92.50;;;;;;5056281;28;20025;-76
2022/10/10 04:45:58;;;;;;;2.92;1.60;;;11.00;92.30;;;;;;5055960;28;20500;-75
2022/10/10 04:48:24;;;;;;;2.60;1.65;;;11.00;92.40;;;;;;5056132;28;20025;-75
2022/10/10 04:50:51;;;;;;;1.75;1.35;;;11.00;92.30;;;;;;5056167;28;20040;-75
2022/10/10 04:53:17;;;;;;;2.53;1.55;;;11.00;92.30;;;;;;5055967;28;20025;-75
2022/10/10 04:55:43;;;;;;;6.28;1.67;;;11.00;92.50;;;;;;5056007;28;20484;-75
2022/10/10 04:58:09;;;;;;;3.88;1.55;;;11.00;92.50;;;;;;5054979;28;20481;-76
2022/10/10 05:00:34;;;;;;;2.00;1.60;;;11.00;92.50;;;;;;5056071;28;20037;-75
2022/10/10 05:03:00;;;;;;;3.05;1.67;;;11.00;92.50;;;;;;5055441;28;20144;-75
2022/10/10 05:05:25;;;;;;;3.45;1.40;;;11.00;92.60;;;;;;5056056;28;20021;-75
2022/10/10 05:07:51;;;;;;;2.10;1.48;;;11.00;92.50;;;;;;5055259;28;20061;-76
2022/10/10 05:10:17;;;;;;;5.32;2.17;;;11.00;92.80;;;;;;5054457;28;20033;-75
2022/10/10 05:12:42;;;;;;;6.28;2.20;;;11.00;92.70;;;;;;5055856;28;20025;-76
2022/10/10 05:15:08;;;;;;;4.60;1.60;;;11.00;92.80;;;;;;5055207;28;20083;-75
2022/10/10 05:17:34;;;;;;;3.85;1.85;;;11.00;92.80;;;;;;5055711;28;20373;-75
2022/10/10 05:20:00;;;;;;;4.88;1.63;;;10.90;93.00;;;;;;5055016;28;20412;-75
2022/10/10 05:22:25;;;;;;;5.22;1.75;;;10.90;93.10;;;;;;5055662;28;20041;-76
2022/10/10 05:24:51;;;;;;;3.15;1.60;;;10.90;93.00;;;;;;5054951;28;20033;-75
2022/10/10 05:27:17;;;;;;;5.80;1.63;;;10.90;93.30;;;;;;5055592;28;20056;-75
2022/10/10 05:29:42;;;;;;;2.58;1.65;;;10.90;93.40;;;;;;5055554;28;20044;-75
2022/10/10 05:32:08;;;;;;;2.55;1.80;;;10.90;93.20;;;;;;5054437;28;20048;-75
2022/10/10 05:34:34;;;;;;;5.32;1.77;;;10.90;93.60;;;;;;5054340;28;20032;-75
2022/10/10 05:36:59;;;;;;;4.82;1.65;;;11.00;93.50;;;;;;5053601;28;20071;-75
2022/10/10 05:39:25;;;;;;;6.85;1.80;;;11.00;93.60;;;;;;5053827;28;20032;-75
2022/10/10 05:41:50;;;;;;;3.42;1.50;;;11.00;93.50;;;;;;5053672;28;20466;-75
2022/10/10 05:44:16;;;;;;;8.02;2.28;;;11.00;93.70;;;;;;5053754;28;20040;-75
2022/10/10 05:46:42;;;;;;;5.70;2.20;;;11.00;94.00;;;;;;5053973;28;20036;-75
2022/10/10 05:49:07;;;;;;;5.28;1.75;;;11.00;94.00;;;;;;5052879;28;20036;-74
2022/10/10 05:51:33;;;;;;;3.22;1.73;;;11.00;93.90;;;;;;5053992;28;20029;-74
2022/10/10 05:53:59;;;;;;;3.53;2.05;;;11.00;94.10;;;;;;5053544;28;20500;-75
2022/10/10 05:56:24;;;;;;;4.90;1.92;;;11.00;94.10;;;;;;5053786;28;20060;-74
2022/10/10 05:58:50;;;;;;;6.93;2.00;;;11.00;94.00;;;;;;5053467;28;20025;-75
2022/10/10 06:01:19;;;;;;;7.20;1.85;;;11.00;94.10;;;;;;5053627;28;20052;-75
2022/10/10 06:03:44;;;;;;;3.47;2.10;;;11.00;94.40;;;;;;5053720;28;20025;-75
2022/10/10 06:06:10;;;;;;;6.15;2.10;;;11.10;94.20;;;;;;5053222;28;20095;-76
2022/10/10 06:08:36;;;;;;;3.45;2.20;;;11.10;94.50;;;;;;5054028;28;20094;-75
2022/10/10 06:11:30;;;;;;;3.35;1.80;;;11.10;94.20;;;;;;5052992;28;20085;-76
2022/10/10 06:13:56;;;;;;;2.70;1.83;;;11.20;94.20;;;;;;5051887;28;20037;-75
2022/10/10 06:16:24;;;;;;;4.95;1.90;;;11.20;94.10;;;;;;5053560;28;20032;-76
2022/10/10 06:18:49;;;;;;;7.03;2.05;;;11.30;94.20;;;;;;5053198;28;20029;-75
2022/10/10 06:21:16;;;;;;;3.13;1.88;;;11.30;94.20;;;;;;5053539;28;20037;-73
2022/10/10 06:23:48;;;;;;;4.57;2.13;;;11.30;94.20;;;;;;5053319;28;20155;-75
2022/10/10 06:26:14;;;;;;;6.22;2.28;;;11.30;94.20;;;;;;5053376;28;20036;-75
2022/10/10 06:29:01;;;;;;;;;;;;;;;;;;;;;
2022/10/10 06:31:30;;;;;;;3.17;1.88;;;11.50;94.00;;;;;;4929312;28;3534557;-75
2022/10/10 06:34:27;;;;;;;6.18;1.83;;;11.50;94.00;;;;;;5053901;28;20176;-74
2022/10/10 06:37:25;;;;;;;5.40;1.88;;;11.60;93.90;;;;;;5048837;28;20128;-75
2022/10/10 06:47:18;;;;;;;3.65;1.90;;;12.00;93.40;;;;;;4986417;28;20038;-75
2022/10/10 06:49:43;;;;;;;4.03;2.25;;;12.10;93.00;;;;;;5051631;28;20036;-76
2022/10/10 06:52:09;;;;;;;3.72;1.83;;;12.10;93.10;;;;;;5051148;28;20033;-75
2022/10/10 06:54:35;;;;;;;2.35;1.70;;;12.30;92.90;;;;;;5051544;28;20119;-75
2022/10/10 06:57:01;;;;;;;5.30;1.92;;;12.30;92.90;;;;;;5051168;28;20033;-75
2022/10/10 06:59:29;;;;;;;8.98;2.17;;;12.40;92.70;;;;;;5051440;28;20363;-76
2022/10/10 07:05:10;;;;;;;5.63;1.38;;;12.60;92.10;;;;;;4952180;29;20039;-76
2022/10/10 07:08:28;;;;;;;2.70;1.73;;;12.80;92.00;;;;;;5041406;28;20067;-75
2022/10/10 07:11:24;;;;;;;;;;;;;;;;;;;;;
2022/10/10 07:35:19;;;;;;;10.63;2.58;;;14.70;83.50;;;;;;4731957;30;20082;-75
2022/10/10 07:37:53;;;;;;;6.57;2.30;;;14.80;82.20;;;;;;4773248;30;20055;-75
2022/10/10 08:01:05;;;;;;;3.92;2.10;;;16.10;75.90;;;;;;4803207;29;20107;-76
2022/10/10 08:58:58;;;;;;;4.75;1.70;;;17.40;71.70;;;;;;4749457;30;20449;-75
2022/10/10 09:01:30;;;;;;;4.97;1.90;;;17.50;71.40;;;;;;4748895;30;20065;-75
2022/10/10 09:03:59;;;;;;;5.13;2.10;;;17.60;71.30;;;;;;4752776;29;20174;-74
2022/10/10 09:06:25;;;;;;;3.80;2.20;;;17.70;71.00;;;;;;4820425;29;20100;-74
2022/10/10 09:09:21;;;;;;;10.23;2.17;;;17.80;70.70;;;;;;4892230;29;20052;-75
2022/10/10 09:12:33;;;;;;;4.55;2.22;;;17.80;70.70;;;;;;4933422;28;20035;-74
2022/10/10 09:15:13;;;;;;;;;;;17.90;69.70;;;;;;4932853;29;20044;-74
2022/10/10 09:18:23;;;;;;;4.20;1.92;;;17.90;69.20;;;;;;4932611;29;19907;-75
2022/10/10 09:55:33;;;;;;;;;;;18.50;69.30;;;;;;4628592;30;20545;-73
2022/10/10 09:58:23;;;;;;;2.55;2.28;;;18.70;68.90;;;;;;4649497;30;20476;-76
2022/10/10 10:00:55;;;;;;;4.30;2.40;;;18.80;68.70;;;;;;4690725;30;20056;-76
2022/10/10 10:03:28;;;;;;;6.75;2.78;;;18.90;68.10;;;;;;4769000;30;20176;-76
2022/10/10 10:10:22;;;;;;;6.88;2.75;;;19.10;67.60;;;;;;4786900;30;20104;-76
2022/10/10 10:24:20;;;;;;;4.10;2.33;;;19.50;66.40;;;;;;4647544;30;20152;-75
2022/10/10 10:26:47;;;;;;;4.60;2.75;;;19.40;66.20;;;;;;4788180;29;20499;-75
2022/10/10 10:29:31;;;;;;;6.50;3.22;;;19.40;66.10;;;;;;4786549;30;20502;-74
2022/10/10 10:32:13;;;;;;;5.72;2.90;;;19.40;66.20;;;;;;4786934;30;20073;-74
2022/10/10 10:35:16;;;;;;;4.43;3.20;;;19.50;66.30;;;;;;4787078;30;20070;-75
2022/10/10 10:38:00;;;;;;;5.35;2.90;;;19.50;66.10;;;;;;4785612;30;20040;-76
2022/10/10 10:40:32;;;;;;;7.43;2.88;;;19.60;65.90;;;;;;4786155;30;20046;-75
2022/10/10 10:43:00;;;;;;;6.68;3.42;;;19.70;66.00;;;;;;4786741;30;20053;-75
2022/10/10 10:45:32;;;;;;;7.97;3.38;;;19.70;65.40;;;;;;4793541;29;20053;-75
2022/10/10 10:48:23;;;;;;;8.00;3.22;;;19.70;65.60;;;;;;4822790;29;20038;-76
2022/10/10 10:50:58;;;;;;;6.68;2.83;;;19.70;65.60;;;;;;4822814;29;20084;-75
2022/10/10 10:53:44;;;;;;;5.63;2.88;;;19.60;64.90;;;;;;4908689;29;20028;-75
2022/10/10 10:56:37;;;;;;;3.75;2.58;;;19.50;65.00;;;;;;4946756;28;20054;-75
2022/10/10 10:59:03;;;;;;;4.57;2.40;;;19.40;65.30;;;;;;5053899;28;20397;-75
2022/10/10 11:01:52;;;;;;;6.25;2.88;;;19.30;65.20;;;;;;5053349;28;20032;-76
2022/10/10 11:04:26;;;;;;;5.32;2.58;;;19.20;65.40;;;;;;5053509;28;20040;-77
2022/10/10 11:07:15;;;;;;;4.35;2.28;;;19.10;65.60;;;;;;5053613;28;20032;-75
2022/10/10 11:09:52;;;;;;;4.53;2.80;;;19.00;66.20;;;;;;5053742;28;20094;-75
2022/10/10 11:12:24;;;;;;;4.07;2.38;;;18.90;66.20;;;;;;5053489;28;20037;-75
2022/10/10 11:15:01;;;;;;;4.13;2.70;;;18.80;66.30;;;;;;5053625;28;20433;-75
2022/10/10 11:18:02;;;;;;;4.65;2.58;;;18.80;66.80;;;;;;5053481;28;20469;-76
2022/10/10 11:20:37;;;;;;;3.28;2.20;;;18.70;66.70;;;;;;5052053;28;20107;-76
2022/10/10 11:23:21;;;;;;;4.45;2.55;;;18.60;67.20;;;;;;5053185;28;20378;-75
2022/10/10 11:25:58;;;;;;;4.47;2.45;;;18.50;67.40;;;;;;5053498;28;20087;-75
2022/10/10 11:28:32;;;;;;;4.10;1.95;;;18.30;67.70;;;;;;5052908;28;20028;-75
2022/10/10 11:31:04;;;;;;;3.45;2.20;;;18.20;68.20;;;;;;5053390;28;20036;-75
2022/10/10 11:33:35;;;;;;;3.60;2.03;;;18.20;68.50;;;;;;5052985;28;20036;-75
2022/10/10 11:36:06;;;;;;;8.02;2.58;;;18.20;68.90;;;;;;5053436;28;20035;-75
2022/10/10 11:38:34;;;;;;;4.10;2.35;;;18.20;69.10;;;;;;5052952;28;20074;-76
2022/10/10 11:41:11;;;;;;;4.75;2.50;;;18.20;69.40;;;;;;5052925;28;20033;-76
2022/10/10 11:43:52;;;;;;;5.40;2.60;;;18.10;69.60;;;;;;5052313;28;20538;-75
2022/10/10 11:46:30;;;;;;;7.65;2.78;;;18.20;69.70;;;;;;5052858;28;20021;-75
2022/10/10 11:49:25;;;;;;;5.68;2.75;;;18.20;69.90;;;;;;5052789;28;20465;-76
2022/10/10 11:51:57;;;;;;;4.82;2.45;;;18.20;70.10;;;;;;5029454;28;20048;-75
2022/10/10 11:54:42;;;;;;;3.72;2.53;;;18.30;70.40;;;;;;5052645;28;20370;-76
2022/10/10 11:57:26;;;;;;;5.43;3.10;;;18.30;70.00;;;;;;5053225;28;20045;-75
2022/10/10 11:59:59;;;;;;;6.25;3.40;;;18.40;69.90;;;;;;5052866;28;20029;-75
2022/10/10 12:02:36;;;;;;;5.82;2.92;;;18.50;69.80;;;;;;5052300;28;20025;-75
2022/10/10 12:05:16;;;;;;;12.00;2.85;;;18.50;69.60;;;;;;5052686;28;20434;-75
2022/10/10 12:07:52;;;;;;;6.47;3.63;;;18.40;69.50;;;;;;5052665;28;20032;-75
2022/10/10 12:10:29;;;;;;;5.80;2.90;;;18.30;69.90;;;;;;5052330;28;20044;-75
2022/10/10 12:13:00;;;;;;;7.20;2.90;;;18.20;70.30;;;;;;5052697;28;20401;-76
2022/10/10 12:15:29;;;;;;;6.95;2.55;;;18.10;70.70;;;;;;5051973;28;20061;-75
2022/10/10 12:17:56;;;;;;;3.88;2.70;;;18.10;71.20;;;;;;5052501;28;20063;-75
2022/10/10 12:20:25;;;;;;;11.63;3.08;;;18.00;71.40;;;;;;5052086;28;20509;-75
2022/10/10 12:23:08;;;;;;;4.43;3.38;;;18.00;71.80;;;;;;5076798;28;20039;-75
2022/10/10 12:25:44;;;;;;;10.48;2.92;;;17.90;72.20;;;;;;5092262;28;20103;-75
2022/10/10 12:28:13;;;;;;;5.82;2.95;;;17.90;72.70;;;;;;5091183;28;20031;-75
2022/10/10 12:30:54;;;;;;;4.15;2.50;;;17.80;72.90;;;;;;5071918;28;20032;-75
2022/10/10 12:33:32;;;;;;;5.55;2.80;;;17.80;73.30;;;;;;5072126;28;20100;-75
2022/10/10 12:36:19;;;;;;;5.88;2.67;;;17.80;73.70;;;;;;5072622;28;20028;-74
2022/10/10 12:39:07;;;;;;;9.43;4.00;;;17.70;74.00;;;;;;5072073;28;20139;-74
2022/10/10 12:41:58;;;;;;;4.57;3.00;;;17.80;74.60;;;;;;5071823;28;20029;-73
2022/10/10 12:44:40;;;;;;;4.90;2.80;;;17.80;74.90;;;;;;5067361;28;20114;-75
2022/10/10 12:47:15;;;;;;;9.38;3.88;;;17.80;75.10;;;;;;5072670;28;20025;-75
2022/10/10 12:49:56;;;;;;;4.60;2.65;;;17.80;75.30;;;;;;5071788;28;20021;-75
2022/10/10 12:52:34;;;;;;;6.00;2.70;;;17.80;75.50;;;;;;5071634;28;20028;-76
2022/10/10 12:55:16;;;;;;;6.72;2.97;;;17.80;75.60;;;;;;5071867;28;20028;-75
2022/10/10 12:57:45;;;;;;;5.13;3.33;;;17.80;75.60;;;;;;5071500;28;20100;-75
2022/10/10 13:00:17;;;;;;;5.75;3.15;;;17.80;75.90;;;;;;5073887;28;20028;-74
2022/10/10 13:02:46;;;;;;;4.45;2.78;;;17.90;76.10;;;;;;5075743;28;20029;-74
2022/10/10 13:05:16;;;;;;;6.63;3.17;;;17.90;76.40;;;;;;5075787;28;20110;-74
2022/10/10 13:07:44;;;;;;;5.90;3.40;;;17.90;76.70;;;;;;5075348;28;20040;-74
2022/10/10 13:10:25;;;;;;;7.18;4.35;;;17.90;76.80;;;;;;5075863;28;20424;-75
2022/10/10 13:13:18;;;;;;;7.60;3.47;;;17.90;76.60;;;;;;5075640;28;20092;-75
2022/10/10 13:15:56;;;;;;;4.82;3.50;;;18.00;76.40;;;;;;5075266;28;20033;-75
2022/10/10 13:18:35;;;;;;;6.15;3.33;;;18.00;76.60;;;;;;5075186;28;20031;-75
2022/10/10 13:21:03;;;;;;;6.93;3.88;;;18.00;76.10;;;;;;5075512;28;20029;-74
2022/10/10 13:23:29;;;;;;;4.10;3.13;;;18.00;76.20;;;;;;5075258;28;20039;-75
2022/10/10 13:25:55;;;;;;;6.45;4.07;;;18.00;76.40;;;;;;5075194;28;20035;-75
2022/10/10 13:28:21;;;;;;;8.07;4.55;;;18.00;76.60;;;;;;5075334;28;20033;-74
2022/10/10 13:30:48;;;;;;;5.47;3.60;;;17.90;76.90;;;;;;5075414;28;20028;-74
2022/10/10 13:33:17;;;;;;;5.15;3.55;;;17.90;76.80;;;;;;5075469;28;20425;-75
2022/10/10 13:35:48;;;;;;;6.30;3.80;;;17.90;76.70;;;;;;5074938;28;20052;-76
2022/10/10 13:38:15;;;;;;;6.05;3.75;;;17.90;77.10;;;;;;5075426;28;20035;-75
2022/10/10 13:40:42;;;;;;;7.72;3.75;;;17.90;76.50;;;;;;5074753;28;20028;-75
2022/10/10 13:43:13;;;;;;;7.30;3.60;;;17.90;76.50;;;;;;5075173;28;20082;-74
2022/10/10 13:45:48;;;;;;;5.15;3.05;;;17.90;76.90;;;;;;5074881;28;20078;-75
2022/10/10 13:48:20;;;;;;;5.57;3.47;;;17.90;76.60;;;;;;5075103;28;20020;-74
2022/10/10 13:51:14;;;;;;;7.80;3.42;;;17.90;76.80;;;;;;5074546;28;20063;-74
2022/10/10 13:53:47;;;;;;;7.15;3.33;;;17.90;76.30;;;;;;5073758;28;20465;-75
2022/10/10 13:56:30;;;;;;;5.00;3.13;;;17.90;76.00;;;;;;5075190;28;20051;-74
2022/10/10 13:59:04;;;;;;;6.47;3.47;;;17.90;75.90;;;;;;5074946;28;20029;-75
2022/10/10 14:01:47;;;;;;;13.02;3.85;;;17.90;75.90;;;;;;5074334;28;20033;-75
2022/10/10 14:04:14;;;;;;;5.93;3.03;;;17.90;76.00;;;;;;5074930;28;20033;-74
2022/10/10 14:06:48;;;;;;;5.88;3.22;;;17.90;76.00;;;;;;5074426;28;20389;-75
2022/10/10 14:09:36;;;;;;;4.05;3.30;;;17.90;75.80;;;;;;5074742;28;20020;-74
2022/10/10 14:12:05;;;;;;;6.13;3.40;;;17.90;75.90;;;;;;5074556;28;20074;-74
2022/10/10 14:14:51;;;;;;;4.35;3.22;;;17.90;76.20;;;;;;5074357;28;20170;-74
2022/10/10 14:17:17;;;;;;;5.05;2.97;;;17.90;75.70;;;;;;5090007;28;20111;-74
2022/10/10 14:19:44;;;;;;;4.38;3.22;;;17.90;75.80;;;;;;5094403;28;20069;-75
2022/10/10 14:22:10;;;;;;;10.25;3.78;;;17.90;76.20;;;;;;5094522;28;20024;-74
2022/10/10 14:24:36;;;;;;;5.25;3.55;;;18.00;76.10;;;;;;5094133;28;20510;-75
2022/10/10 14:27:15;;;;;;;5.50;3.08;;;18.00;76.10;;;;;;5094549;28;20024;-75
2022/10/10 14:29:40;;;;;;;4.82;3.53;;;18.00;76.20;;;;;;5086949;28;20096;-74
2022/10/10 14:32:09;;;;;;;4.38;3.30;;;17.90;76.40;;;;;;5073912;28;20123;-74
2022/10/10 14:34:34;;;;;;;6.00;3.85;;;18.00;76.80;;;;;;5073897;28;20508;-74
2022/10/10 14:37:00;;;;;;;4.28;3.25;;;18.00;76.30;;;;;;5039287;28;20048;-73
2022/10/10 14:39:25;;;;;;;4.13;3.45;;;17.90;76.40;;;;;;5074322;28;20103;-76
2022/10/10 14:41:51;;;;;;;7.68;3.70;;;17.90;76.90;;;;;;5055938;28;20392;-74
2022/10/10 14:44:17;;;;;;;7.10;3.55;;;17.90;77.10;;;;;;5074177;28;20090;-75
2022/10/10 14:46:42;;;;;;;10.23;3.60;;;17.90;77.40;;;;;;5074120;28;20032;-73
2022/10/10 14:49:18;;;;;;;6.43;3.67;;;17.90;77.50;;;;;;5074178;28;20024;-74
2022/10/10 14:51:43;;;;;;;9.43;3.60;;;17.90;77.50;;;;;;5074439;28;20476;-75
2022/10/10 14:54:09;;;;;;;4.65;3.55;;;17.90;77.70;;;;;;5074218;28;20025;-74
2022/10/10 14:56:35;;;;;;;8.50;3.60;;;17.80;77.80;;;;;;5073286;28;20074;-75
2022/10/10 14:59:01;;;;;;;8.30;3.80;;;17.80;77.90;;;;;;5074173;28;20040;-74
2022/10/10 15:01:27;;;;;;;6.00;3.53;;;17.80;78.10;;;;;;5055970;28;20028;-75
2022/10/10 15:03:52;;;;;;;8.20;3.30;;;17.70;78.40;;;;;;5073903;28;20475;-75
2022/10/10 15:06:18;;;;;;;6.80;3.80;;;17.60;78.70;;;;;;5073881;28;20111;-74
2022/10/10 15:08:44;;;;;;;9.75;3.40;;;17.60;78.90;;;;;;5073274;28;20082;-74
2022/10/10 15:11:15;;;;;;;6.40;3.45;;;17.60;78.80;;;;;;5073563;28;20369;-74
2022/10/10 15:13:40;;;;;;;5.22;3.15;;;17.50;78.80;;;;;;5073231;28;20126;-74
2022/10/10 15:16:06;;;;;;;5.50;3.42;;;17.50;79.10;;;;;;5073192;28;20028;-75
2022/10/10 15:18:32;;;;;;;7.55;3.80;;;17.50;79.30;;;;;;5072931;28;20082;-75
2022/10/10 15:20:58;;;;;;;4.95;3.33;;;17.40;79.50;;;;;;5073114;28;20461;-74
2022/10/10 15:23:23;;;;;;;7.00;3.53;;;17.40;79.90;;;;;;5073027;28;20032;-74
2022/10/10 15:25:49;;;;;;;7.30;3.78;;;17.30;80.20;;;;;;5054999;28;20033;-74
2022/10/10 15:28:15;;;;;;;8.90;3.78;;;17.30;80.40;;;;;;5073221;28;20032;-74
2022/10/10 15:30:44;;;;;;;6.32;3.50;;;17.30;80.40;;;;;;5072890;28;20421;-74
2022/10/10 15:33:10;;;;;;;5.55;3.30;;;17.20;80.60;;;;;;5073070;28;20067;-75
2022/10/10 15:35:35;;;;;;;4.72;3.72;;;17.20;80.80;;;;;;5072464;28;20056;-76
2022/10/10 15:38:01;;;;;;;5.50;3.53;;;17.20;80.70;;;;;;5072904;28;20074;-76
2022/10/10 15:40:28;;;;;;;6.55;4.05;;;17.10;81.00;;;;;;5073011;28;20028;-76
2022/10/10 15:42:54;;;;;;;6.15;3.47;;;17.10;81.20;;;;;;5072583;28;20078;-75
2022/10/10 15:45:20;;;;;;;4.55;3.30;;;17.10;81.50;;;;;;5072629;28;20029;-75
2022/10/10 15:47:45;;;;;;;4.53;3.50;;;17.00;81.60;;;;;;5054505;28;20032;-74
2022/10/10 15:50:11;;;;;;;9.60;3.40;;;17.10;81.50;;;;;;5072777;28;20036;-75
2022/10/10 15:52:37;;;;;;;5.95;3.78;;;17.00;81.80;;;;;;5072005;28;20380;-75